Williamsport Regional Airport
KIPT : now visible

Airfield :











YOU CAN JOIN US ON...

 
LOGIN :

Register | Disclaimer

   EN    FR    IT 

 









Legend :    VFR   Marginal VFR   IFR   Intensive IFR   Very Intensive IFR
Visi :
Ceiling :
>= 8 km
>= 3000ft
5 to 8 km
1000 to 3000 ft
1500m to 5 km
500 to 1000 ft
800 to 1500m
200 to 500 ft
< 800m
< 200 ft
Symbols :   Thunderstorms  Fog  Heavy snow  Heavy precipitations  Wind > 20 kt






- Airport Elevation : 529 ft
- IATA code : IPT


KIPT - Williamsport Regional

CURRENT METAR :
  • 221754Z 28012G18KT 10SM BKN055 OVC070 04/M07 A2973 RMK AO2 SLP070 T00441072 10050 20017 58001

EXPIRED METARs :
  • 221654Z 27012KT 10SM BKN050 BKN060 BKN080 05/M07 A2973 RMK AO2 SLP069 T00501067
  • 221554Z 26010KT 10SM BKN049 OVC080 04/M06 A2974 RMK AO2 SLP075 T00391056

TAF KIPT
Valid from the 22 at 18:00 until the 23 at 18:00 UTC


221740Z 2218/2318 27012G20KT P6SM OVC050
TEMPO 2219/2221 2SM -SHSN BKN020
FM230000 28013G20KT P6SM OVC035
KZNY FIR / North America



MET'MAP, your aeronautical weather chart ! - Copyright ORBIFLY December 2007 - Disclaimer

ORBIFLY MET'MAP TEAM :

Programming & Development : Alexandra Zaïnal
Concept & original design : Baudouin d'Aumeries
Assistance for programming : Marc-Olivier Méhu
Technical & hardware support : Manuel Goepfert

Contact : metmap@orbifly.com




SOURCES & CREDITS :

   NOAA       Earth
Advisory